Fort Morgan, CO

8:21 AM MST on February 07, 2016 (GMT -0700)
Green Acres | | Change Station
CLOSE
Current Station
Personal Weather Station
Location: Fort Morgan, CO
Elevation: 4327 ft
Nearby Weather Stations

Elev 4327 ft 40.26 °N, 103.80 °W | Updated 25 seconds ago

Clear
Clear
28.0 °F
Feels Like 28 °F
N
0.0
Wind Variable Wind from West
Gusts 0.0 mph

Today
High -- | Low -- °F
--% Chance of Precip.
Yesterday
High -- | Low -- °F
Precip. -- in
Pressure 30.29 in
Visibility 10.0 miles
Clouds Clear
Windchill 28 °F
Dew Point 14 °F
Humidity 54%
Rainfall 0.00 in
Snow Depth Not available.
6:58 AM 5:20 PM
Waning Crescent, 1% visible
METAR KFMM 071515Z AUTO 36009KT 10SM CLR M03/M08 A3029 RMK AO2 T10271082
Pressure 30.29 in
Visibility 10.0 miles
Clouds Clear
Windchill 28 °F
Dew Point 14 °F
Humidity 54%
Rainfall 0.00 in
Snow Depth Not available.
6:58 AM 5:20 PM
Waning Crescent, 1% visible
METAR KFMM 071515Z AUTO 36009KT 10SM CLR M03/M08 A3029 RMK AO2 T10271082

10-Day Weather Forecast

Almanac

Astronomy

Feb. 07, 2016 Rise Set
Actual Time
Civil Twilight
Nautical Twilight
Astronomical Twilight
Moon
Length of Visible Light
Length of Day
Tomorrow will be .
, % of the Moon is Illuminated

Today's Extremes

State Highs State Lows

Community

WunderPhotos

Upload Photos

1,891,214 photos uploaded!

WunderBlog® & News

Nearby

Air Quality

  Air Quality AQ Index Pollutant
Not available.

Snow Depth

Station Depth Elevation

Earthquake Activity

City Distance Mag. Time & Date
Minimum magnitude displayed is 2.5.

Coastal Water Temperatures

Place Temperature

Stations

Nearby Weather Stations

Station Location Temp. Windchill Dew Point Humidity Wind Precip. Elev Updated Type
                   

Watches & Warnings

There are currently no watches in effect.